Capitol Logistics 870


GOBD
Blaise Diagne International Airport
Dakar, SN
EBLG
Liège Airport
Liege, BE

Activity Log

Date Flight Route Aircraft Duration
01/23/2020 CPX870 GOBD/01 SLO UR975 ADM UG850 MAK UB11 MABAP UR722 SAK UG5 KORIS UL27 VJF UN10 HIJ UZ230 TLD UN858 VANAD UN874 CMB UM617 CIV CIV5D EBLG/04R B763 5h 24m
12/30/2019 CPX870 GOBD/01 SLO UR975 ADM UG850 MAK UB11 MABAP UR722 SAK UG5 KORIS UL27 VJF UN10 HIJ UZ230 TLD UN858 VANAD UN874 CMB UM617 CIV CIV5X EBLG/LGE.I22R B763 5h 54m
12/22/2019 CPX870 Not Available B763 7h 07m
11/05/2019 CPX770 Not Available B763 5h 34m
10/24/2019 CPX770 Not Available B763 6h 09m

Route Details

Aircraft Information
Primary: Boeing 767-300BDSF
Backup: Not Available
Route Data
Distance: 2516nm
Sched. Duration: 4h 45m
Avg. Duration: 5h 86m (+141m)
Times Flown: 5
Recm'd Route: Not Available
Planned Altitude: 35,000ft
Origin Wx: GOBD 270200Z 03012KT 7000 NSC 29/13 Q1011 NOSIG
Dest. Wx: EBLG 270150Z 21010KT 9999 SCT032 02/00 Q1007 NOSIG
Notes:

Financial History
Total Freight: 506,706lbs
Average Load: 101,341lbs/flt
Fuel Used: 316,327lbs
Avg. Fuel Used: 63,265lbs/flt
Fuel Expense: $234,082
Avg. Fuel Expense: $46,816
Avg. Fuel Cost: $0.74/lbs
Total Gross Income: $4,800,485
Pilot Pay: $1,185
Total Expenses: $518,712
Total Revenue: $4,040,528
Average Revenue: $960,096.93